Gasquet, California
Current Conditions -  °F | °C
As of 2:25 PM on Saturday 20 Dec 2014 (Local Time) from KCEC Reporting Station
Moderate Rain Moderate Rain  
Wind Chill: 13°   Ceiling: 1300
Heat Index: 13°   Visibility: 1.2mi
Dew Point: 13°   Wind: 24mph
Humidity: 100%   Direction: 190°S
Pressure: 29.97"   Gusts: 35mph
Location:  41.85°N, 123.97°W
Report Text: KCEC 202225Z AUTO 19021G30KT 1 1/4SM RA BR SCT006 BKN013 OVC018 13/13 A2997 RMK AO2 PK WND 17032/2203 P0004 T01330133
Loading
Personal Weather Stations






























Interactive Weather Map New forecast layout! Learn more

10-Day Weather Forecast

Advertisements
Track Severe Weather on mobile